createdAt,value
2018-03-07T00:04:35.000Z,32.817
2018-03-07T00:14:35.000Z,32.987
2018-03-07T00:24:35.000Z,32.885
2018-03-07T00:34:35.000Z,32.991
2018-03-07T00:44:35.000Z,33.019
2018-03-07T00:54:35.000Z,33.081
2018-03-07T01:04:35.000Z,33.088
2018-03-07T01:14:35.000Z,33.074
2018-03-07T01:24:36.000Z,33.103
2018-03-07T01:34:35.000Z,33.121
2018-03-07T01:44:35.000Z,33.106
2018-03-07T01:54:35.000Z,33.104
2018-03-07T02:04:35.000Z,33.133
2018-03-07T02:14:35.000Z,33.086
2018-03-07T02:24:35.000Z,33.062
2018-03-07T02:34:35.000Z,33.058
2018-03-07T02:44:35.000Z,33.077
2018-03-07T02:54:35.000Z,33.127
2018-03-07T03:04:35.000Z,33.103
2018-03-07T03:14:35.000Z,33.057
2018-03-07T03:24:35.000Z,33.14
2018-03-07T03:34:35.000Z,33.181
2018-03-07T03:44:35.000Z,33.232
2018-03-07T03:54:35.000Z,33.1
2018-03-07T04:04:35.000Z,33.194
2018-03-07T04:14:35.000Z,33.148
2018-03-07T04:24:35.000Z,33.135
2018-03-07T04:34:35.000Z,33.111
2018-03-07T04:44:35.000Z,33.141
2018-03-07T04:54:35.000Z,33.032
2018-03-07T05:04:35.000Z,33.065
2018-03-07T05:14:35.000Z,32.88
2018-03-07T05:24:35.000Z,32.761
2018-03-07T05:34:35.000Z,32.662
2018-03-07T05:44:35.000Z,32.36
2018-03-07T05:54:36.000Z,32.53
2018-03-07T06:04:36.000Z,32.271
2018-03-07T06:14:36.000Z,32.119
2018-03-07T06:24:36.000Z,31.912
2018-03-07T06:34:36.000Z,31.9
2018-03-07T06:44:36.000Z,31.521
2018-03-07T06:54:36.000Z,30.978
2018-03-07T07:04:36.000Z,30.457
2018-03-07T07:14:36.000Z,30.402
2018-03-07T07:24:36.000Z,31.576
2018-03-07T07:34:36.000Z,31.361
2018-03-07T07:44:36.000Z,31.103
2018-03-07T07:54:36.000Z,31.209
2018-03-07T08:04:36.000Z,30.829
2018-03-07T08:14:36.000Z,30.516
2018-03-07T08:24:36.000Z,30.291
2018-03-07T08:34:36.000Z,29.837
2018-03-07T08:44:36.000Z,29.738
2018-03-07T08:54:36.000Z,29.676
2018-03-07T09:04:36.000Z,29.421
2018-03-07T09:14:36.000Z,29.415
2018-03-07T09:24:36.000Z,29.061
2018-03-07T09:34:36.000Z,28.884
2018-03-07T09:44:36.000Z,28.773
2018-03-07T09:54:36.000Z,28.47
2018-03-07T10:04:38.000Z,28.963
2018-03-07T10:14:36.000Z,29.032
2018-03-07T10:24:36.000Z,28.758
2018-03-07T10:34:36.000Z,28.572
2018-03-07T10:44:36.000Z,28.346
2018-03-07T10:54:36.000Z,28.131
2018-03-07T11:04:36.000Z,27.839
2018-03-07T11:14:36.000Z,27.6
2018-03-07T11:24:36.000Z,27.251
2018-03-07T11:34:36.000Z,27.564
2018-03-07T11:44:36.000Z,28.098
2018-03-07T11:54:36.000Z,27.502
2018-03-07T12:04:36.000Z,28.027
2018-03-07T12:14:36.000Z,28.421
2018-03-07T12:24:36.000Z,28.47
2018-03-07T12:34:36.000Z,29.006
2018-03-07T12:44:36.000Z,29.375
2018-03-07T12:54:36.000Z,29.503
2018-03-07T13:04:36.000Z,29.727
2018-03-07T13:14:36.000Z,29.92
2018-03-07T13:24:36.000Z,30.145
2018-03-07T13:34:36.000Z,30.407
2018-03-07T13:44:36.000Z,30.936
2018-03-07T13:54:37.000Z,31.034
2018-03-07T14:04:36.000Z,31.228
2018-03-07T14:14:36.000Z,31.441
2018-03-07T14:24:37.000Z,31.42
2018-03-07T14:34:37.000Z,31.447
2018-03-07T14:44:37.000Z,31.29
2018-03-07T14:54:37.000Z,33.189
2018-03-07T15:04:37.000Z,34
2018-03-07T15:14:37.000Z,34.139
2018-03-07T15:24:37.000Z,34.456
2018-03-07T15:34:37.000Z,34.376
2018-03-07T15:44:37.000Z,34.45
2018-03-07T15:54:37.000Z,34.511
2018-03-07T16:04:37.000Z,34.489
2018-03-07T16:14:37.000Z,34.529
2018-03-07T16:24:37.000Z,34.504
2018-03-07T16:34:37.000Z,34.71
2018-03-07T16:44:37.000Z,35.002
2018-03-07T16:54:37.000Z,34.824
2018-03-07T17:04:37.000Z,34.859
2018-03-07T17:14:37.000Z,34.992
2018-03-07T17:24:37.000Z,34.68
2018-03-07T17:34:37.000Z,34.749
2018-03-07T17:44:37.000Z,34.59
2018-03-07T17:54:37.000Z,34.751
2018-03-07T18:04:37.000Z,34.942
2018-03-07T18:14:37.000Z,35.079
2018-03-07T18:24:37.000Z,35.203
2018-03-07T18:34:37.000Z,35.38
2018-03-07T18:44:37.000Z,35.299
2018-03-07T18:54:37.000Z,35.592
2018-03-07T19:04:37.000Z,35.673
2018-03-07T19:14:37.000Z,35.931
2018-03-07T19:24:37.000Z,36.122
2018-03-07T19:34:37.000Z,36.151
2018-03-07T19:44:37.000Z,36.311
2018-03-07T19:54:37.000Z,36.359
2018-03-07T20:04:37.000Z,36.474
2018-03-07T20:14:37.000Z,36.525
2018-03-07T20:24:37.000Z,36.542
2018-03-07T20:34:37.000Z,36.733
2018-03-07T20:44:37.000Z,36.708
2018-03-07T20:54:37.000Z,36.923
2018-03-07T21:04:37.000Z,37.005
2018-03-07T21:14:37.000Z,37.187
2018-03-07T21:24:37.000Z,37.303
2018-03-07T21:34:37.000Z,37.519
2018-03-07T21:44:37.000Z,37.569
2018-03-07T21:54:37.000Z,37.728
2018-03-07T22:04:37.000Z,37.767
2018-03-07T22:14:38.000Z,38.017
2018-03-07T22:24:40.000Z,38.111
2018-03-07T22:34:39.000Z,38.239
2018-03-07T22:44:38.000Z,38.695
2018-03-07T22:54:38.000Z,38.777
2018-03-07T23:04:38.000Z,38.882
2018-03-07T23:14:38.000Z,38.781
2018-03-07T23:24:38.000Z,38.733
2018-03-07T23:34:38.000Z,38.761
2018-03-07T23:44:38.000Z,38.812
2018-03-07T23:54:38.000Z,38.796
